createdAt,value
2019-05-14T00:00:52.175Z,23.47
2019-05-14T00:15:52.402Z,28.27
2019-05-14T00:30:52.199Z,24.65
2019-05-14T00:45:51.117Z,26.85
2019-05-14T01:00:49.663Z,26.65
2019-05-14T01:30:53.089Z,26.55
2019-05-14T01:45:52.167Z,21.57
2019-05-14T02:00:52.100Z,20.92
2019-05-14T02:15:51.993Z,18.12
2019-05-14T02:30:57.635Z,19.12
2019-05-14T02:46:09.491Z,23.07
2019-05-14T03:00:50.084Z,20.20
2019-05-14T03:15:50.095Z,21.25
2019-05-14T03:30:52.167Z,19.60
2019-05-14T03:45:49.816Z,19.98
2019-05-14T04:15:49.919Z,20.32
2019-05-14T04:30:55.088Z,22.22
2019-05-14T04:45:50.018Z,20.77
2019-05-14T05:00:49.908Z,22.62
2019-05-14T05:15:51.793Z,27.60
2019-05-14T05:30:51.352Z,29.77
2019-05-14T05:45:49.748Z,25.00
2019-05-14T06:00:49.917Z,25.20
2019-05-14T06:15:52.437Z,28.02
2019-05-14T06:30:49.997Z,26.77
2019-05-14T06:45:49.846Z,28.45
2019-05-14T07:00:49.800Z,23.30
2019-05-14T07:15:49.256Z,25.25
2019-05-14T07:30:49.295Z,23.25
2019-05-14T07:45:49.397Z,20.92
2019-05-14T08:00:49.362Z,24.15
2019-05-14T08:15:49.547Z,25.48
2019-05-14T08:30:49.427Z,23.83
2019-05-14T08:45:49.376Z,21.77
2019-05-14T09:00:49.556Z,17.67
2019-05-14T09:15:49.838Z,20.20
2019-05-14T09:30:49.209Z,19.82
2019-05-14T09:45:49.646Z,16.90
2019-05-14T10:00:49.610Z,18.70
2019-05-14T10:15:50.043Z,19.60
2019-05-14T10:30:52.974Z,19.73
2019-05-14T10:45:49.926Z,22.48
2019-05-14T11:00:52.819Z,20.20
2019-05-14T11:15:49.237Z,18.35
2019-05-14T11:30:55.245Z,18.60
2019-05-14T11:45:50.117Z,18.35
2019-05-14T12:00:50.044Z,16.42
2019-05-14T12:15:49.673Z,16.75
2019-05-14T12:30:49.386Z,16.85
2019-05-14T12:45:49.567Z,18.42
2019-05-14T13:00:49.503Z,15.20
2019-05-14T13:15:53.829Z,10.58
2019-05-14T13:30:51.567Z,9.18
2019-05-14T13:45:51.556Z,10.08
2019-05-14T14:00:52.113Z,12.13
2019-05-14T14:15:49.848Z,14.28
2019-05-14T14:30:49.768Z,12.95
2019-05-14T14:45:51.406Z,13.48
2019-05-14T15:00:50.155Z,15.48
2019-05-14T15:15:50.054Z,18.48
2019-05-14T15:30:50.256Z,15.45
2019-05-14T15:45:49.949Z,15.93
2019-05-14T16:01:00.850Z,18.42
2019-05-14T16:15:49.272Z,21.65
2019-05-14T16:30:50.695Z,19.00
2019-05-14T16:45:56.052Z,40.10
2019-05-14T17:30:51.529Z,18.40
2019-05-14T17:45:53.922Z,20.92
2019-05-14T18:00:51.447Z,19.42
2019-05-14T18:30:51.219Z,23.30
2019-05-14T18:45:55.428Z,28.35
2019-05-14T19:00:58.775Z,25.88
2019-05-14T19:15:59.115Z,32.10
2019-05-14T19:31:00.616Z,35.05
2019-05-14T19:45:51.309Z,33.83
2019-05-14T20:00:49.924Z,32.55
2019-05-14T20:30:51.131Z,23.62
2019-05-14T20:45:53.992Z,16.32
2019-05-14T21:00:50.112Z,4.97
2019-05-14T21:15:55.226Z,1.30
2019-05-14T21:30:49.157Z,1.40
2019-05-14T21:45:51.748Z,1.55
2019-05-14T22:00:52.939Z,1.60
2019-05-14T22:15:49.468Z,1.05
2019-05-14T22:30:51.481Z,0.90
2019-05-14T22:45:49.907Z,1.50
2019-05-14T23:01:02.164Z,0.90
2019-05-14T23:15:52.751Z,0.88
2019-05-14T23:30:49.239Z,0.78
2019-05-14T23:45:49.347Z,1.20
